Time;durP1;ratioP1;P1;durP2;ratioP2;P2;SDS_P1;SDS_P2;PMS_P1;PMS_P2;Temp;Humidity;BMP_temperature;BMP_pressure;BME280_temperature;BME280_humidity;BME280_pressure;Samples;Min_cycle;Max_cycle;Signal;HPM_P1;HPM_P2
2023/07/16 00:01:32;;;;;;;12.60;3.22;;;;;;;16.64;100.00;98550.44;5137777;28;20575;-60
2023/07/16 00:03:58;;;;;;;3.97;2.95;;;;;;;16.61;100.00;98545.75;5138146;28;20313;-61
2023/07/16 00:06:24;;;;;;;4.22;2.83;;;;;;;16.64;100.00;98538.59;5137723;27;20051;-61
2023/07/16 00:08:51;;;;;;;15.25;3.00;;;;;;;16.55;100.00;98525.28;5138139;27;20047;-61
2023/07/16 00:11:17;;;;;;;6.05;3.35;;;;;;;16.56;100.00;98529.66;5138007;28;20059;-61
2023/07/16 00:13:46;;;;;;;5.35;2.60;;;;;;;16.53;100.00;98529.69;5138241;28;20500;-60
2023/07/16 00:16:12;;;;;;;7.80;3.33;;;;;;;16.52;100.00;98534.44;5137680;28;20051;-61
2023/07/16 00:18:39;;;;;;;5.75;3.38;;;;;;;16.50;100.00;98536.84;5137870;28;20058;-61
2023/07/16 00:21:05;;;;;;;12.10;3.00;;;;;;;16.47;100.00;98521.09;5137857;28;20119;-61
2023/07/16 00:23:31;;;;;;;12.82;3.38;;;;;;;16.30;100.00;98484.22;5137602;28;20062;-61
2023/07/16 00:25:58;;;;;;;7.32;3.15;;;;;;;16.34;100.00;98468.34;5137534;28;20057;-61
2023/07/16 00:28:24;;;;;;;6.72;3.15;;;;;;;16.30;100.00;98475.16;5137700;27;20055;-61
2023/07/16 00:30:50;;;;;;;7.72;2.75;;;;;;;16.32;100.00;98467.19;5137868;28;20051;-61
2023/07/16 00:33:16;;;;;;;4.55;2.97;;;;;;;16.24;100.00;98455.47;5137558;28;20111;-61
2023/07/16 00:35:48;;;;;;;8.70;4.10;;;;;;;16.17;100.00;98445.31;5137820;28;20051;-61
2023/07/16 00:38:14;;;;;;;4.22;3.50;;;;;;;16.15;100.00;98425.59;5137315;28;20054;-61
2023/07/16 00:40:40;;;;;;;5.25;2.97;;;;;;;16.13;100.00;98433.53;5137840;28;20059;-61
2023/07/16 00:43:07;;;;;;;4.25;2.97;;;;;;;16.11;100.00;98424.88;5137247;28;20070;-60
2023/07/16 00:45:33;;;;;;;3.83;3.30;;;;;;;16.04;100.00;98415.91;5137531;28;20050;-61
2023/07/16 00:47:59;;;;;;;8.50;3.22;;;;;;;16.03;100.00;98403.28;5137550;28;20054;-61
2023/07/16 00:50:25;;;;;;;8.25;4.45;;;;;;;16.00;100.00;98402.94;5137422;28;20043;-61
2023/07/16 00:52:52;;;;;;;8.38;3.35;;;;;;;15.94;100.00;98396.31;5137529;28;20059;-61
2023/07/16 00:55:18;;;;;;;11.05;3.83;;;;;;;15.93;100.00;98393.97;5137343;28;20346;-61
2023/07/16 00:57:45;;;;;;;5.63;2.97;;;;;;;15.96;100.00;98390.34;5137328;28;20396;-61
2023/07/16 01:00:13;;;;;;;5.60;3.80;;;;;;;15.88;100.00;98388.91;5137132;28;20047;-62
2023/07/16 01:02:39;;;;;;;7.00;3.45;;;;;;;15.82;100.00;98396.88;5137541;28;20074;-61
2023/07/16 01:05:06;;;;;;;9.05;3.25;;;;;;;15.79;100.00;98389.44;5137135;28;20047;-61
2023/07/16 01:07:33;;;;;;;9.05;3.58;;;;;;;15.82;100.00;98382.28;5137300;28;20404;-61
2023/07/16 01:10:01;;;;;;;5.10;3.28;;;;;;;15.82;100.00;98371.25;5137037;28;20111;-61
2023/07/16 01:12:28;;;;;;;5.93;3.33;;;;;;;15.77;100.00;98355.91;5137352;27;20047;-61
2023/07/16 01:14:56;;;;;;;7.07;4.03;;;;;;;15.72;100.00;98359.16;5137195;28;20132;-61
2023/07/16 01:17:23;;;;;;;5.38;2.90;;;;;;;15.62;100.00;98341.50;5137359;27;20324;-61
2023/07/16 01:19:49;;;;;;;8.07;3.35;;;;;;;15.62;100.00;98347.03;5140610;28;20054;-61
2023/07/16 01:22:36;;;;;;;8.23;3.22;;;;;;;15.63;100.00;98334.03;5140573;28;20051;-61
2023/07/16 01:25:17;;;;;;;7.78;3.50;;;;;;;15.57;100.00;98338.47;5140734;28;20142;-62
2023/07/16 01:27:59;;;;;;;5.40;3.05;;;;;;;15.58;100.00;98326.97;5140589;28;20363;-61
2023/07/16 01:30:27;;;;;;;10.85;3.45;;;;;;;15.54;100.00;98315.22;5140807;28;20054;-61
2023/07/16 01:32:54;;;;;;;7.60;3.83;;;;;;;15.52;100.00;98317.59;5140304;28;20047;-61
2023/07/16 01:35:21;;;;;;;7.07;3.40;;;;;;;15.47;100.00;98321.63;5140237;28;20066;-61
2023/07/16 01:37:48;;;;;;;8.35;3.10;;;;;;;15.45;100.00;98317.72;5140280;28;20320;-61
2023/07/16 01:40:15;;;;;;;7.60;3.60;;;;;;;15.43;100.00;98312.63;5140172;28;20047;-61
2023/07/16 01:42:41;;;;;;;6.28;3.30;;;;;;;15.41;100.00;98315.00;5140438;28;20055;-61
2023/07/16 01:45:07;;;;;;;7.53;3.75;;;;;;;15.44;100.00;98313.38;5140152;28;20442;-61
2023/07/16 01:47:44;;;;;;;6.68;2.92;;;;;;;15.39;100.00;98305.56;5140341;28;20051;-61
2023/07/16 01:50:11;;;;;;;4.70;3.05;;;;;;;15.36;100.00;98298.13;5140074;27;20055;-61
2023/07/16 01:52:37;;;;;;;6.43;3.05;;;;;;;15.37;100.00;98296.94;5140509;28;20073;-61
2023/07/16 01:55:03;;;;;;;10.15;3.40;;;;;;;15.34;100.00;98290.25;5139988;27;20054;-61
2023/07/16 01:57:29;;;;;;;8.00;3.22;;;;;;;15.32;100.00;98300.16;5139850;28;20471;-61
2023/07/16 01:59:55;;;;;;;10.32;3.33;;;;;;;15.33;100.00;98285.13;5139874;27;20055;-62
2023/07/16 02:02:21;;;;;;;8.50;3.17;;;;;;;15.34;100.00;98290.25;5139988;28;20192;-61
2023/07/16 02:04:48;;;;;;;7.72;2.95;;;;;;;15.29;100.00;98287.97;5140105;28;20051;-61
2023/07/16 02:07:14;;;;;;;6.45;3.10;;;;;;;15.21;100.00;98278.22;5139943;28;20138;-61
2023/07/16 02:09:40;;;;;;;8.23;3.17;;;;;;;15.20;100.00;98280.22;5140120;28;20462;-61
2023/07/16 02:12:06;;;;;;;9.05;3.20;;;;;;;15.23;100.00;98278.59;5139680;28;20059;-61
2023/07/16 02:14:32;;;;;;;9.10;4.47;;;;;;;15.17;100.00;98275.53;5139925;28;20047;-61
2023/07/16 02:16:58;;;;;;;8.18;3.55;;;;;;;15.16;100.00;98275.94;5139684;28;20058;-61
2023/07/16 02:19:25;;;;;;;4.90;3.13;;;;;;;15.20;100.00;98273.91;5139981;28;20312;-61
2023/07/16 02:21:52;;;;;;;6.22;3.55;;;;;;;15.18;100.00;98274.31;5139586;28;20055;-61
2023/07/16 02:24:18;;;;;;;7.05;3.72;;;;;;;15.21;100.00;98273.50;5139973;28;20047;-61
2023/07/16 02:26:43;;;;;;;6.35;3.55;;;;;;;15.23;100.00;98279.38;5139440;28;20070;-61
2023/07/16 02:29:09;;;;;;;8.48;3.67;;;;;;;15.28;100.00;98278.13;5138500;27;20086;-61
2023/07/16 02:31:36;;;;;;;6.35;3.63;;;;;;;15.26;100.00;98288.78;5139403;28;20102;-60
2023/07/16 02:34:02;;;;;;;6.00;3.58;;;;;;;15.37;100.00;98289.44;5139597;28;20486;-61
2023/07/16 02:36:28;;;;;;;11.38;3.70;;;;;;;15.41;100.00;98281.09;5139406;27;20051;-61
2023/07/16 02:38:54;;;;;;;8.90;3.63;;;;;;;15.46;100.00;98286.91;5139382;28;20051;-61
2023/07/16 02:41:20;;;;;;;4.53;3.28;;;;;;;15.62;100.00;98291.00;5139360;28;20554;-61
2023/07/16 02:43:46;;;;;;;4.40;3.15;;;;;;;16.07;100.00;98307.25;5139360;28;20167;-61
2023/07/16 02:46:12;;;;;;;5.60;4.20;;;;;;;16.58;100.00;98366.75;5139606;28;20043;-61
2023/07/16 02:48:38;;;;;;;10.45;3.35;;;;;;;16.94;100.00;98429.75;5139185;28;20088;-61
2023/07/16 02:51:04;;;;;;;7.50;3.53;;;;;;;17.26;100.00;98511.41;5139570;28;20293;-61
2023/07/16 02:53:30;;;;;;;7.07;3.30;;;;;;;17.65;100.00;98554.97;5139026;28;20495;-61
2023/07/16 02:55:56;;;;;;;8.00;3.38;;;;;;;17.87;100.00;98610.78;5139434;28;20051;-61
2023/07/16 02:58:22;;;;;;;7.22;4.70;;;;;;;18.10;100.00;98651.53;5139178;28;20134;-61
2023/07/16 03:00:48;;;;;;;9.27;4.65;;;;;;;18.30;100.00;98684.81;5138900;28;20391;-61
2023/07/16 03:03:14;;;;;;;10.38;4.78;;;;;;;18.57;100.00;98704.81;5138753;28;20058;-61
2023/07/16 03:05:40;;;;;;;5.18;3.28;;;;;;;18.71;100.00;98753.69;5138809;28;20051;-61
2023/07/16 03:08:06;;;;;;;5.97;4.38;;;;;;;19.00;100.00;98755.88;5138914;28;20047;-62
2023/07/16 03:10:32;;;;;;;5.70;3.55;;;;;;;19.21;100.00;98796.28;5138730;28;20112;-62
2023/07/16 03:12:58;;;;;;;5.38;3.35;;;;;;;19.41;100.00;98833.13;5138861;27;20093;-62
2023/07/16 03:15:24;;;;;;;6.93;3.70;;;;;;;19.58;100.00;98816.47;5138761;28;20133;-61
2023/07/16 03:17:50;;;;;;;6.32;3.63;;;;;;;19.71;100.00;98840.38;5139087;28;20154;-62
2023/07/16 03:20:16;;;;;;;4.63;3.13;;;;;;;19.95;100.00;98852.09;5138648;28;20065;-62
2023/07/16 03:22:42;;;;;;;3.95;3.13;;;;;;;20.16;100.00;98856.38;5139067;28;20129;-62
2023/07/16 03:25:08;;;;;;;4.63;3.38;;;;;;;20.38;100.00;98876.06;5138494;27;20142;-61
2023/07/16 03:27:34;;;;;;;5.85;3.15;;;;;;;20.75;100.00;98898.19;5138648;28;20447;-62
2023/07/16 03:30:01;;;;;;;7.18;3.25;;;;;;;20.92;100.00;98919.19;5138713;28;20137;-61
2023/07/16 03:32:27;;;;;;;6.03;2.95;;;;;;;21.19;100.00;98929.97;5138353;28;20050;-62
2023/07/16 03:34:53;;;;;;;7.00;3.75;;;;;;;21.39;100.00;98940.94;5138497;28;20137;-61
2023/07/16 03:37:19;;;;;;;10.02;3.97;;;;;;;21.65;100.00;98958.50;5138377;28;20096;-61
2023/07/16 03:39:45;;;;;;;6.32;4.28;;;;;;;21.96;100.00;98972.72;5138680;27;20363;-62
2023/07/16 03:42:10;;;;;;;5.28;3.13;;;;;;;22.17;100.00;98995.63;5137929;27;20150;-62
2023/07/16 03:44:36;;;;;;;7.88;3.42;;;;;;;22.31;100.00;98998.72;5138630;28;20074;-61
2023/07/16 03:47:04;;;;;;;7.07;3.38;;;;;;;22.67;100.00;99005.16;5138231;28;20452;-62
2023/07/16 03:49:29;;;;;;;8.65;3.78;;;;;;;22.88;100.00;99004.41;5138573;28;20043;-62
2023/07/16 03:51:55;;;;;;;7.13;3.40;;;;;;;23.17;100.00;99011.81;5138085;28;20372;-62
2023/07/16 03:54:21;;;;;;;10.07;4.00;;;;;;;23.33;100.00;99024.84;5138537;28;20082;-61
2023/07/16 03:56:47;;;;;;;9.20;3.40;;;;;;;23.55;100.00;99020.00;5138224;27;20070;-62
2023/07/16 03:59:13;;;;;;;9.43;3.30;;;;;;;23.97;100.00;99035.66;5137992;27;20079;-62
2023/07/16 04:01:39;;;;;;;5.85;3.38;;;;;;;24.14;100.00;99037.75;5137962;27;20058;-62
2023/07/16 04:04:06;;;;;;;9.35;4.75;;;;;;;24.50;98.60;99041.19;5138109;28;20173;-62
2023/07/16 04:06:31;;;;;;;10.45;4.35;;;;;;;25.04;96.31;99053.75;5138144;28;20047;-62
2023/07/16 04:08:57;;;;;;;9.60;4.55;;;;;;;25.12;94.72;99055.00;5137982;28;20100;-62
2023/07/16 04:11:23;;;;;;;6.82;3.40;;;;;;;25.52;84.30;99074.47;5137967;28;20070;-62
2023/07/16 04:13:49;;;;;;;7.43;2.50;;;;;;;25.48;77.74;99084.31;5137747;28;20057;-62
2023/07/16 04:16:15;;;;;;;3.50;2.00;;;;;;;25.85;76.47;99076.66;5138081;28;20054;-62
2023/07/16 04:18:41;;;;;;;4.53;2.63;;;;;;;26.04;74.13;99078.16;5137703;28;20083;-62
2023/07/16 04:21:07;;;;;;;4.60;2.90;;;;;;;26.36;73.04;99081.50;5138128;28;20043;-62
2023/07/16 04:23:33;;;;;;;6.05;2.42;;;;;;;26.36;71.08;99086.31;5137517;27;20336;-61
2023/07/16 04:25:59;;;;;;;5.90;2.85;;;;;;;26.87;71.48;99082.66;5138084;28;20088;-62
2023/07/16 04:28:25;;;;;;;3.53;2.45;;;;;;;26.77;69.60;99076.31;5137586;27;20047;-61
2023/07/16 04:30:51;;;;;;;4.32;2.75;;;;;;;27.10;69.06;99087.50;5137453;28;20115;-62
2023/07/16 04:33:19;;;;;;;2.28;2.08;;;;;;;26.56;69.67;99080.16;5137814;28;20062;-62
2023/07/16 04:35:44;;;;;;;4.28;2.30;;;;;;;26.76;66.85;99086.00;5137666;28;20099;-62
2023/07/16 04:38:11;;;;;;;2.47;2.20;;;;;;;27.43;66.06;99081.78;5137489;28;20055;-62
2023/07/16 04:40:37;;;;;;;3.45;2.05;;;;;;;27.31;66.25;99091.28;5137534;28;20057;-62
2023/07/16 04:43:03;;;;;;;4.20;2.05;;;;;;;27.31;64.68;99093.31;5137646;28;20055;-62
2023/07/16 04:45:29;;;;;;;2.30;2.10;;;;;;;27.68;63.76;99096.59;5137429;27;20070;-63
2023/07/16 04:47:55;;;;;;;2.03;1.85;;;;;;;27.66;62.36;99099.13;5137653;28;20308;-62
2023/07/16 04:50:21;;;;;;;3.33;2.20;;;;;;;28.39;66.18;99100.44;5137285;27;20086;-62
2023/07/16 04:52:46;;;;;;;4.00;1.80;;;;;;;27.06;64.60;99098.16;5136873;27;20376;-61
2023/07/16 04:55:13;;;;;;;3.03;1.85;;;;;;;27.91;61.23;99104.19;5137125;28;20430;-62
2023/07/16 04:57:39;;;;;;;2.28;1.50;;;;;;;27.47;61.31;99106.94;5137133;28;20053;-62
2023/07/16 05:00:08;;;;;;;2.83;1.80;;;;;;;27.29;61.72;99102.25;5137435;28;20047;-61
2023/07/16 05:02:33;;;;;;;1.90;1.80;;;;;;;27.53;60.42;99110.66;5136998;28;20373;-62
2023/07/16 05:04:59;;;;;;;2.33;1.70;;;;;;;27.47;59.47;99112.56;5137216;27;20138;-63
2023/07/16 05:07:25;;;;;;;1.83;1.70;;;;;;;28.69;58.39;99111.63;5137103;28;20134;-59
2023/07/16 05:09:51;;;;;;;2.92;1.63;;;;;;;27.48;60.02;99113.34;5137350;28;20137;-59
2023/07/16 05:12:18;;;;;;;1.90;1.75;;;;;;;28.87;57.64;99111.38;5136994;28;20430;-59
2023/07/16 05:14:45;;;;;;;3.83;1.70;;;;;;;29.48;56.75;99111.41;5137372;28;20369;-60
2023/07/16 05:17:11;;;;;;;3.33;1.70;;;;;;;29.17;57.07;99119.75;5136909;28;20080;-59
2023/07/16 05:19:37;;;;;;;4.45;1.88;;;;;;;29.03;56.53;99116.50;5137361;28;20043;-60
2023/07/16 05:22:02;;;;;;;2.38;1.85;;;;;;;29.20;56.86;99111.06;5136787;28;20055;-59
2023/07/16 05:24:28;;;;;;;4.50;1.92;;;;;;;29.48;56.00;99111.41;5137180;28;20141;-60
2023/07/16 05:26:54;;;;;;;4.20;1.65;;;;;;;29.99;55.02;99111.94;5136756;28;20051;-60
2023/07/16 05:29:21;;;;;;;5.07;1.90;;;;;;;30.38;54.38;99117.19;5136973;28;20102;-59
2023/07/16 05:31:47;;;;;;;1.88;1.48;;;;;;;29.24;55.40;99122.94;5137067;28;20141;-60
2023/07/16 05:34:13;;;;;;;2.58;1.45;;;;;;;29.54;55.36;99117.13;5136891;28;20074;-61
2023/07/16 05:36:39;;;;;;;1.83;1.63;;;;;;;30.58;53.51;99122.72;5136961;28;20327;-60
2023/07/16 05:39:08;;;;;;;1.98;1.80;;;;;;;30.17;54.45;99128.56;5136735;28;20328;-60
2023/07/16 05:41:34;;;;;;;4.88;1.70;;;;;;;31.19;52.67;99113.09;5136921;28;20137;-62
2023/07/16 05:44:00;;;;;;;2.05;1.85;;;;;;;31.43;52.81;99120.41;5136553;27;20403;-61
2023/07/16 05:46:26;;;;;;;3.88;1.48;;;;;;;31.07;52.37;99114.31;5136936;28;20051;-61
2023/07/16 05:48:52;;;;;;;4.00;1.63;;;;;;;30.47;52.75;99111.34;5136518;28;20050;-60
2023/07/16 05:51:18;;;;;;;2.53;1.60;;;;;;;31.18;52.53;99115.13;5136344;28;20138;-60
2023/07/16 05:53:44;;;;;;;4.50;1.63;;;;;;;31.54;51.88;99111.94;5136253;28;20083;-60
2023/07/16 05:56:10;;;;;;;3.83;1.63;;;;;;;30.83;52.47;99118.31;5136352;28;20070;-60
2023/07/16 05:58:36;;;;;;;2.38;1.50;;;;;;;30.97;51.92;99116.56;5136176;28;20055;-61
2023/07/16 06:01:02;;;;;;;1.40;1.30;;;;;;;30.42;52.34;99112.88;5136450;28;20050;-60
2023/07/16 06:03:29;;;;;;;2.67;1.50;;;;;;;30.66;52.29;99108.91;5136698;27;20454;-61
2023/07/16 06:05:54;;;;;;;2.22;1.65;;;;;;;30.12;52.73;99108.72;5139844;28;20104;-61
2023/07/16 06:08:20;;;;;;;1.70;1.60;;;;;;;31.04;51.98;99107.59;5139885;28;20059;-61
2023/07/16 06:10:46;;;;;;;3.58;1.55;;;;;;;31.07;51.06;99111.47;5139780;28;20138;-61
2023/07/16 06:13:12;;;;;;;2.42;1.35;;;;;;;31.80;49.83;99112.53;5140049;27;20096;-60
2023/07/16 06:15:38;;;;;;;2.72;1.50;;;;;;;32.50;49.69;99107.97;5139750;28;20367;-60
2023/07/16 06:18:04;;;;;;;3.97;1.58;;;;;;;31.03;50.03;99108.88;5140022;28;20316;-60
2023/07/16 06:20:30;;;;;;;5.05;1.80;;;;;;;31.33;50.20;99106.47;5139368;28;20427;-60
2023/07/16 06:22:56;;;;;;;7.28;2.05;;;;;;;32.80;48.89;99110.22;5139822;28;20055;-59
2023/07/16 06:25:22;;;;;;;6.40;1.95;;;;;;;33.07;48.05;99108.63;5139611;27;20057;-60
2023/07/16 06:27:48;;;;;;;3.58;1.50;;;;;;;33.12;47.82;99107.03;5139304;28;20054;-60
2023/07/16 06:30:14;;;;;;;3.88;1.60;;;;;;;32.77;46.58;99109.19;5139664;28;20065;-60
2023/07/16 06:32:40;;;;;;;1.90;1.60;;;;;;;33.12;46.73;99110.66;5139517;27;20075;-61
2023/07/16 06:35:07;;;;;;;1.88;1.63;;;;;;;32.96;46.74;99106.59;5139671;28;20144;-61
2023/07/16 06:37:33;;;;;;;3.17;1.58;;;;;;;32.65;46.61;99104.81;5139109;28;20055;-60
2023/07/16 06:39:59;;;;;;;4.43;1.90;;;;;;;33.13;46.83;99112.22;5139656;28;20043;-61
2023/07/16 06:42:25;;;;;;;3.28;1.80;;;;;;;33.57;46.38;99107.66;5139227;27;20066;-61
2023/07/16 06:44:51;;;;;;;4.50;1.85;;;;;;;33.25;46.42;99108.03;5139568;27;20082;-61
2023/07/16 06:47:17;;;;;;;5.97;1.90;;;;;;;34.06;45.93;99107.88;5139193;28;20297;-60
2023/07/16 06:49:43;;;;;;;1.55;1.45;;;;;;;32.99;46.25;99107.59;5139553;28;20054;-60
2023/07/16 06:52:18;;;;;;;4.88;1.70;;;;;;;33.87;45.67;99113.41;5139019;28;20483;-60
2023/07/16 06:54:45;;;;;;;4.15;1.80;;;;;;;33.63;46.35;99104.78;5138804;28;20204;-60
2023/07/16 06:57:11;;;;;;;2.47;1.83;;;;;;;34.45;45.64;99103.91;5139188;27;20146;-60
2023/07/16 06:59:37;;;;;;;3.97;1.70;;;;;;;33.03;46.25;99096.78;5139065;28;20051;-60
2023/07/16 07:02:03;;;;;;;3.75;1.70;;;;;;;32.66;47.14;99103.56;5139034;28;20085;-60
2023/07/16 07:04:29;;;;;;;3.92;1.88;;;;;;;34.07;46.16;99102.97;5138751;28;20134;-60
2023/07/16 07:06:55;;;;;;;5.15;1.90;;;;;;;34.78;45.68;99097.13;5139038;28;20087;-61
2023/07/16 07:09:21;;;;;;;3.22;1.83;;;;;;;34.73;45.20;99095.13;5138834;28;20075;-60
2023/07/16 07:11:47;;;;;;;5.70;1.90;;;;;;;33.57;46.35;99101.97;5138999;28;20086;-62
2023/07/16 07:14:13;;;;;;;4.63;1.88;;;;;;;34.28;46.52;99089.06;5138687;28;20142;-60
2023/07/16 07:16:39;;;;;;;5.35;2.10;;;;;;;34.93;45.33;99090.25;5138274;27;20043;-60
2023/07/16 07:19:05;;;;;;;3.00;1.70;;;;;;;32.91;47.31;99089.53;5138474;28;20138;-60
2023/07/16 07:21:31;;;;;;;3.60;2.03;;;;;;;33.85;46.76;99095.31;5138875;28;20146;-60
2023/07/16 07:23:57;;;;;;;2.25;1.80;;;;;;;34.65;46.33;99086.38;5138806;28;20051;-61
2023/07/16 07:26:23;;;;;;;4.18;1.88;;;;;;;34.42;45.53;99083.00;5138691;28;20359;-59
2023/07/16 07:28:50;;;;;;;5.60;2.10;;;;;;;33.85;46.89;99079.03;5138529;28;20051;-59
2023/07/16 07:31:16;;;;;;;6.82;1.90;;;;;;;34.18;46.86;99078.00;5138546;28;20047;-60
2023/07/16 07:33:42;;;;;;;3.65;2.20;;;;;;;35.38;46.26;99081.94;5138753;28;20361;-59
2023/07/16 07:36:08;;;;;;;2.35;1.80;;;;;;;35.35;45.44;99074.44;5138414;28;20057;-61
2023/07/16 07:38:34;;;;;;;5.93;1.98;;;;;;;35.21;45.51;99076.44;5138569;28;20047;-60
2023/07/16 07:41:00;;;;;;;7.88;2.20;;;;;;;35.09;45.45;99087.25;5138139;27;20050;-60
2023/07/16 07:43:27;;;;;;;3.47;2.10;;;;;;;35.66;45.25;99080.81;5138561;27;20412;-60
2023/07/16 07:45:54;;;;;;;5.78;2.20;;;;;;;35.67;45.45;99074.56;5138283;28;20051;-60
2023/07/16 07:48:21;;;;;;;3.30;2.20;;;;;;;35.48;45.17;99077.38;5138618;28;20047;-61
2023/07/16 07:50:47;;;;;;;3.55;2.20;;;;;;;35.57;45.32;99079.88;5138056;28;20412;-60
2023/07/16 07:53:14;;;;;;;4.25;2.10;;;;;;;35.36;45.58;99070.31;5138052;28;20149;-59
2023/07/16 07:55:40;;;;;;;3.78;1.98;;;;;;;35.64;45.98;99074.88;5138283;28;20085;-61
2023/07/16 07:58:07;;;;;;;5.68;2.13;;;;;;;35.65;45.90;99070.69;5137916;28;20476;-60
2023/07/16 08:00:33;;;;;;;4.45;2.20;;;;;;;35.21;45.82;99064.28;5138021;27;20051;-60
2023/07/16 08:02:59;;;;;;;2.67;2.00;;;;;;;35.56;45.40;99069.78;5137988;28;20089;-59
2023/07/16 08:05:25;;;;;;;2.55;2.05;;;;;;;35.38;45.70;99066.91;5138179;28;20047;-60
2023/07/16 08:07:52;;;;;;;2.60;1.98;;;;;;;35.81;44.94;99069.66;5137854;28;20051;-59
2023/07/16 08:10:18;;;;;;;10.15;2.28;;;;;;;35.89;45.63;99064.88;5138030;28;20137;-60
2023/07/16 08:12:44;;;;;;;5.45;2.17;;;;;;;35.88;45.50;99069.03;5137760;28;20054;-60
2023/07/16 08:15:14;;;;;;;7.88;2.13;;;;;;;36.00;45.25;99066.78;5138146;28;20051;-59
2023/07/16 08:17:40;;;;;;;5.95;2.10;;;;;;;34.66;47.08;99068.03;5137690;27;20046;-60
2023/07/16 08:20:08;;;;;;;5.85;2.20;;;;;;;36.39;45.76;99065.34;5137589;28;20339;-61
2023/07/16 08:22:34;;;;;;;6.70;2.35;;;;;;;35.81;46.04;99064.72;5137543;28;20047;-60
2023/07/16 08:25:00;;;;;;;3.67;2.00;;;;;;;34.97;45.89;99060.16;5137693;28;20066;-61
2023/07/16 08:27:26;;;;;;;5.75;2.20;;;;;;;35.98;45.86;99060.84;5136365;27;20054;-60
2023/07/16 08:29:52;;;;;;;3.05;2.40;;;;;;;35.84;45.91;99054.31;5137638;28;20047;-60
2023/07/16 08:32:18;;;;;;;17.80;3.15;;;;;;;36.43;45.21;99052.31;5137820;28;20051;-59
2023/07/16 08:34:44;;;;;;;3.92;2.30;;;;;;;35.22;46.55;99063.75;5137627;28;20153;-60
2023/07/16 08:37:11;;;;;;;2.90;2.28;;;;;;;35.99;45.70;99053.81;5137704;28;20431;-59
2023/07/16 08:39:37;;;;;;;8.18;2.17;;;;;;;35.69;45.94;99056.88;5137413;27;20112;-60
2023/07/16 08:42:04;;;;;;;4.47;2.47;;;;;;;35.53;45.63;99055.84;5137727;28;20400;-59
2023/07/16 08:44:30;;;;;;;5.28;2.63;;;;;;;36.29;45.80;99048.66;5137227;28;20047;-59
2023/07/16 08:46:57;;;;;;;3.40;2.35;;;;;;;36.49;44.41;99044.44;5137703;28;20054;-60
2023/07/16 08:49:23;;;;;;;4.75;2.53;;;;;;;36.62;44.85;99042.88;5137412;27;20145;-60
2023/07/16 08:51:50;;;;;;;2.72;2.35;;;;;;;36.16;44.90;99042.16;5137255;28;20055;-60
2023/07/16 08:54:17;;;;;;;30.05;3.47;;;;;;;36.13;45.64;99032.63;5137523;28;20047;-58
2023/07/16 08:56:43;;;;;;;7.43;2.83;;;;;;;35.58;46.19;99035.03;5137281;28;20141;-61
2023/07/16 08:59:10;;;;;;;6.03;2.70;;;;;;;35.13;45.98;99044.19;5137398;27;20051;-60
2023/07/16 09:01:37;;;;;;;4.15;2.58;;;;;;;35.63;45.14;99039.13;5137025;28;20483;-59
2023/07/16 09:04:03;;;;;;;3.85;2.47;;;;;;;34.35;46.22;99040.09;5137342;28;20065;-60
2023/07/16 09:06:30;;;;;;;5.00;2.65;;;;;;;35.47;46.23;99041.63;5137029;28;20140;-59
2023/07/16 09:08:56;;;;;;;5.35;2.20;;;;;;;35.78;46.63;99036.53;5137412;27;20476;-61
2023/07/16 09:11:23;;;;;;;13.98;2.67;;;;;;;36.08;45.66;99044.13;5136840;28;20096;-60
2023/07/16 09:13:49;;;;;;;7.47;2.50;;;;;;;35.92;45.62;99029.53;5137392;28;20101;-60
2023/07/16 09:16:17;;;;;;;2.97;2.70;;;;;;;35.54;45.39;99029.63;5136835;27;20047;-59
2023/07/16 09:18:43;;;;;;;3.60;2.35;;;;;;;35.75;45.46;99038.38;5136628;28;20047;-60
2023/07/16 09:21:09;;;;;;;4.47;3.05;;;;;;;34.88;45.88;99029.19;5137091;28;20702;-60
2023/07/16 09:23:36;;;;;;;3.28;2.63;;;;;;;35.00;46.38;99027.75;5136918;28;20047;-59
2023/07/16 09:26:03;;;;;;;6.47;2.30;;;;;;;35.63;46.67;99019.16;5136853;28;20157;-59
2023/07/16 09:28:31;;;;;;;3.83;2.55;;;;;;;33.37;47.70;99031.28;5136889;28;20043;-60
2023/07/16 09:31:04;;;;;;;3.63;2.78;;;;;;;34.73;47.04;99023.19;5137092;27;20072;-61
2023/07/16 09:33:32;;;;;;;3.40;2.75;;;;;;;34.16;46.76;99017.28;5136753;27;20055;-59
2023/07/16 09:35:58;;;;;;;4.60;2.65;;;;;;;34.39;47.27;99018.59;5137016;28;20127;-60
2023/07/16 09:38:24;;;;;;;3.13;2.80;;;;;;;35.42;46.77;99011.13;5136884;27;20059;-60
2023/07/16 09:40:52;;;;;;;5.75;2.85;;;;;;;35.53;45.30;99010.25;5140616;28;20086;-59
2023/07/16 09:43:18;;;;;;;3.97;3.00;;;;;;;35.97;44.29;99016.53;5140025;28;20107;-60
2023/07/16 09:45:44;;;;;;;4.72;3.13;;;;;;;35.50;44.44;99006.34;5140244;28;20137;-60
2023/07/16 09:48:11;;;;;;;5.60;2.70;;;;;;;35.96;45.09;99010.06;5140288;27;20061;-61
2023/07/16 09:50:38;;;;;;;5.75;3.15;;;;;;;36.01;44.88;99009.19;5140132;27;20134;-60
2023/07/16 09:53:07;;;;;;;4.45;3.05;;;;;;;36.22;44.65;99014.28;5140298;27;20051;-61
2023/07/16 09:55:34;;;;;;;4.20;2.88;;;;;;;35.90;44.56;99014.31;5139990;28;20089;-61
2023/07/16 09:58:04;;;;;;;3.83;3.08;;;;;;;35.35;44.59;99009.66;5140263;28;20381;-60
2023/07/16 10:00:31;;;;;;;4.43;3.13;;;;;;;35.14;45.60;99008.69;5139962;28;20051;-60
2023/07/16 10:02:58;;;;;;;6.25;2.95;;;;;;;35.68;45.71;99001.19;5140228;28;20047;-60
2023/07/16 10:05:26;;;;;;;3.60;2.70;;;;;;;35.44;45.95;98996.34;5139832;28;20138;-60
2023/07/16 10:07:53;;;;;;;4.78;2.88;;;;;;;35.44;46.14;99002.06;5139579;28;20043;-60
2023/07/16 10:10:19;;;;;;;3.40;2.72;;;;;;;35.29;46.04;99005.34;5139604;28;20062;-60
2023/07/16 10:12:56;;;;;;;7.22;3.05;;;;;;;35.52;45.96;98991.56;5139657;28;20150;-60
2023/07/16 10:15:26;;;;;;;3.72;2.80;;;;;;;35.50;45.59;98997.81;5139449;27;20051;-63
2023/07/16 10:17:52;;;;;;;4.28;3.00;;;;;;;35.26;46.32;98995.06;5139560;28;20332;-60
2023/07/16 10:20:29;;;;;;;6.18;2.75;;;;;;;35.48;46.05;98991.88;5139749;28;20146;-60
2023/07/16 10:22:55;;;;;;;2.78;2.58;;;;;;;35.88;45.98;98999.81;5139583;28;20051;-60
2023/07/16 10:25:26;;;;;;;5.65;3.13;;;;;;;36.08;45.39;98984.97;5139907;28;20323;-59
2023/07/16 10:27:53;;;;;;;5.65;2.60;;;;;;;36.37;45.75;98988.84;5139426;28;20420;-61
2023/07/16 10:30:19;;;;;;;2.88;2.50;;;;;;;36.71;45.64;98988.97;5139919;28;20137;-60
2023/07/16 10:32:45;;;;;;;4.13;3.08;;;;;;;35.97;45.72;98988.75;5139365;28;20051;-60
2023/07/16 10:35:12;;;;;;;4.75;3.00;;;;;;;36.02;45.46;98992.84;5139539;28;20069;-60
2023/07/16 10:37:40;;;;;;;3.00;2.63;;;;;;;36.07;45.73;98977.72;5139545;28;20051;-60
2023/07/16 10:40:10;;;;;;;2.90;2.70;;;;;;;35.85;45.29;98983.78;5139521;28;20391;-60
2023/07/16 10:42:37;;;;;;;3.13;2.67;;;;;;;34.66;47.09;98967.63;5139488;28;20051;-61
2023/07/16 10:45:05;;;;;;;4.95;2.72;;;;;;;35.31;46.49;98971.41;5139364;28;20047;-60
2023/07/16 10:47:32;;;;;;;2.97;2.42;;;;;;;34.93;46.92;98977.09;5139509;28;20057;-60
2023/07/16 10:49:59;;;;;;;7.55;2.90;;;;;;;35.38;46.50;98978.56;5138347;27;20139;-61
2023/07/16 10:52:26;;;;;;;7.13;2.95;;;;;;;34.04;48.58;98976.78;5139229;28;20123;-60
2023/07/16 10:54:54;;;;;;;4.00;2.83;;;;;;;34.63;47.58;98965.84;5139053;27;20062;-60
2023/07/16 10:57:21;;;;;;;2.97;2.40;;;;;;;34.86;47.55;98972.03;5139508;27;20083;-60
2023/07/16 10:59:48;;;;;;;6.40;2.90;;;;;;;34.59;48.00;98963.28;5138915;27;20061;-59
2023/07/16 11:02:15;;;;;;;6.88;3.00;;;;;;;33.81;48.87;98958.38;5139044;28;20077;-60
2023/07/16 11:04:43;;;;;;;4.28;3.05;;;;;;;33.09;49.71;98960.41;5139167;27;20149;-61
2023/07/16 11:07:11;;;;;;;4.07;2.78;;;;;;;32.96;50.48;98958.19;5138768;28;20301;-60
2023/07/16 11:09:42;;;;;;;4.43;2.88;;;;;;;32.79;51.03;98956.16;5139181;27;20146;-61
2023/07/16 11:12:11;;;;;;;6.10;2.80;;;;;;;32.95;51.29;98957.34;5138991;28;20046;-61
2023/07/16 11:14:37;;;;;;;11.10;3.25;;;;;;;32.01;52.06;98951.47;5139109;28;20137;-61
2023/07/16 11:17:08;;;;;;;5.30;3.08;;;;;;;31.98;52.35;98948.91;5138788;28;20061;-60
2023/07/16 11:19:35;;;;;;;4.07;2.63;;;;;;;31.57;53.11;98955.09;5139005;27;20074;-60
2023/07/16 11:22:01;;;;;;;4.75;3.30;;;;;;;31.68;53.64;98952.25;5138500;28;20142;-60
2023/07/16 11:24:27;;;;;;;3.15;2.75;;;;;;;31.61;53.26;98958.44;5139075;28;20047;-59
2023/07/16 11:26:56;;;;;;;3.47;2.80;;;;;;;31.80;54.17;98945.28;5138492;28;20188;-59